Time;durP1;ratioP1;P1;durP2;ratioP2;P2;SDS_P1;SDS_P2;PMS_P1;PMS_P2;Temp;Humidity;BMP_temperature;BMP_pressure;BME280_temperature;BME280_humidity;BME280_pressure;Samples;Min_cycle;Max_cycle;Signal;HPM_P1;HPM_P2
2021/11/29 04:03:06;;;;;;;13.70;7.50;;;0.40;92.60;;;;;;5070808;28;20157;-47
2021/11/29 04:05:32;;;;;;;19.10;7.32;;;0.60;92.60;;;;;;5070338;28;20025;-49
2021/11/29 04:07:57;;;;;;;14.27;8.00;;;0.70;92.40;;;;;;5070005;28;20032;-49
2021/11/29 04:10:23;;;;;;;12.90;7.70;;;0.70;92.10;;;;;;5070397;28;20025;-52
2021/11/29 04:12:49;;;;;;;11.82;7.03;;;0.80;91.80;;;;;;5070262;28;20094;-48
2021/11/29 04:15:15;;;;;;;12.13;7.50;;;0.70;91.60;;;;;;5070313;28;20025;-48
2021/11/29 04:17:41;;;;;;;11.48;6.20;;;0.70;91.50;;;;;;5070149;28;20071;-47
2021/11/29 04:20:09;;;;;;;10.13;5.07;;;0.70;91.50;;;;;;5069704;28;20064;-48
2021/11/29 04:22:36;;;;;;;8.65;5.43;;;0.60;91.50;;;;;;5069877;28;20051;-47
2021/11/29 04:25:06;;;;;;;10.70;5.43;;;0.50;91.60;;;;;;5070020;28;20029;-50
2021/11/29 04:27:34;;;;;;;10.20;5.32;;;0.60;91.80;;;;;;5070362;28;20062;-47
2021/11/29 04:30:07;;;;;;;12.35;5.53;;;0.60;91.80;;;;;;5069814;28;20491;-47
2021/11/29 04:32:33;;;;;;;13.65;6.47;;;0.60;91.70;;;;;;5068153;28;20028;-46
2021/11/29 04:34:58;;;;;;;10.45;4.93;;;0.60;91.70;;;;;;5069461;28;20036;-46
2021/11/29 04:37:24;;;;;;;13.20;5.45;;;0.60;91.70;;;;;;5069596;28;20082;-49
2021/11/29 04:39:50;;;;;;;24.10;5.93;;;0.60;91.50;;;;;;5069618;28;20107;-50
2021/11/29 04:42:15;;;;;;;9.18;4.47;;;0.80;91.60;;;;;;5067805;28;20031;-48
2021/11/29 04:44:41;;;;;;;6.32;3.95;;;0.90;91.50;;;;;;5069161;28;20024;-51
2021/11/29 04:47:07;;;;;;;6.28;4.63;;;0.80;91.20;;;;;;5069190;28;20024;-47
2021/11/29 04:49:33;;;;;;;8.13;4.47;;;0.90;91.20;;;;;;5069369;28;20418;-48
2021/11/29 04:51:58;;;;;;;6.30;4.20;;;1.00;91.20;;;;;;5069126;28;20504;-51
2021/11/29 04:54:24;;;;;;;7.63;4.05;;;1.00;91.00;;;;;;5067712;28;20060;-49
2021/11/29 04:56:50;;;;;;;6.80;3.90;;;1.00;90.90;;;;;;5069141;28;20021;-47
2021/11/29 04:59:15;;;;;;;8.15;4.22;;;1.00;90.80;;;;;;5068780;28;20082;-47
2021/11/29 05:01:41;;;;;;;5.13;3.95;;;0.90;91.00;;;;;;5077387;28;20090;-47
2021/11/29 05:04:07;;;;;;;5.40;3.50;;;0.90;90.90;;;;;;5089073;28;20510;-49
2021/11/29 05:06:36;;;;;;;9.45;4.40;;;1.00;91.00;;;;;;5089044;28;20410;-51
2021/11/29 05:09:03;;;;;;;6.40;3.28;;;1.00;90.90;;;;;;5088996;28;20020;-49
2021/11/29 05:11:29;;;;;;;5.68;4.15;;;1.00;91.10;;;;;;5089020;28;20024;-48
2021/11/29 05:13:54;;;;;;;8.35;3.83;;;1.00;90.90;;;;;;5078413;28;20039;-47
2021/11/29 05:16:20;;;;;;;3.97;2.80;;;1.10;91.00;;;;;;5075450;28;20032;-48
2021/11/29 05:18:46;;;;;;;5.97;2.88;;;1.00;91.00;;;;;;5075367;28;20063;-48
2021/11/29 05:21:11;;;;;;;4.70;2.80;;;1.10;91.00;;;;;;5075459;28;20032;-48
2021/11/29 05:23:37;;;;;;;6.00;3.20;;;1.30;90.90;;;;;;5075123;28;20025;-49
2021/11/29 05:26:03;;;;;;;11.48;4.35;;;1.30;90.30;;;;;;5075265;28;20020;-49
2021/11/29 05:28:28;;;;;;;5.07;2.88;;;1.30;90.30;;;;;;5057125;28;20017;-49
2021/11/29 05:30:54;;;;;;;8.95;3.45;;;1.40;90.20;;;;;;5075426;28;20017;-48
2021/11/29 05:33:20;;;;;;;5.40;3.03;;;1.40;89.90;;;;;;5057133;28;20025;-49
2021/11/29 05:35:45;;;;;;;7.28;2.85;;;1.40;90.00;;;;;;5075125;28;20016;-48
2021/11/29 05:38:11;;;;;;;3.92;2.95;;;1.40;90.20;;;;;;5074984;28;20021;-49
2021/11/29 05:40:37;;;;;;;4.65;2.55;;;1.50;90.00;;;;;;5075028;28;20052;-51
2021/11/29 05:43:03;;;;;;;4.38;2.88;;;1.50;89.80;;;;;;5075257;28;20060;-50
2021/11/29 05:45:28;;;;;;;5.07;2.35;;;1.50;89.80;;;;;;5075201;28;20020;-49
2021/11/29 05:47:54;;;;;;;6.40;2.35;;;1.60;89.70;;;;;;5074883;28;20171;-50
2021/11/29 05:50:20;;;;;;;8.02;3.50;;;1.60;89.90;;;;;;5075048;28;20021;-48
2021/11/29 05:52:46;;;;;;;10.73;2.50;;;1.60;89.70;;;;;;5074741;28;20357;-48
2021/11/29 05:55:13;;;;;;;4.35;2.20;;;1.70;90.00;;;;;;5057238;28;20060;-49
2021/11/29 05:57:40;;;;;;;8.45;2.10;;;1.80;89.50;;;;;;5074901;28;20059;-49
2021/11/29 06:00:10;;;;;;;2.90;1.98;;;1.70;89.60;;;;;;5074709;28;20029;-48
2021/11/29 06:02:35;;;;;;;3.30;1.85;;;1.70;89.80;;;;;;5074446;28;20049;-48
2021/11/29 06:05:01;;;;;;;6.80;2.08;;;1.60;89.90;;;;;;5074833;28;20472;-50
2021/11/29 06:07:27;;;;;;;4.07;2.88;;;1.70;89.90;;;;;;5074457;28;20480;-48
2021/11/29 06:09:52;;;;;;;3.83;1.90;;;1.80;89.70;;;;;;5074928;28;20025;-49
2021/11/29 06:12:18;;;;;;;6.32;1.65;;;1.70;89.50;;;;;;5076120;28;20029;-50
2021/11/29 06:14:43;;;;;;;3.72;1.83;;;1.70;89.60;;;;;;5074609;28;20078;-48
2021/11/29 06:17:09;;;;;;;3.88;2.10;;;1.70;89.80;;;;;;5074537;28;20058;-48
2021/11/29 06:19:35;;;;;;;4.20;1.80;;;1.80;89.40;;;;;;5074053;28;20087;-51
2021/11/29 06:22:00;;;;;;;3.65;2.17;;;1.80;89.60;;;;;;5074227;28;20091;-51
2021/11/29 06:24:26;;;;;;;5.60;2.60;;;1.80;89.70;;;;;;5074180;28;20033;-50
2021/11/29 06:26:52;;;;;;;2.58;1.40;;;1.80;89.50;;;;;;5074077;28;20025;-50
2021/11/29 06:29:17;;;;;;;2.92;1.58;;;1.80;89.80;;;;;;5073942;28;20024;-52
2021/11/29 06:31:43;;;;;;;3.40;1.83;;;1.70;90.00;;;;;;5074104;28;20021;-49
2021/11/29 06:34:09;;;;;;;9.55;2.33;;;1.80;90.10;;;;;;5073887;28;20035;-49
2021/11/29 06:36:34;;;;;;;2.95;1.73;;;1.80;90.30;;;;;;5073957;28;20035;-49
2021/11/29 06:39:00;;;;;;;3.15;1.92;;;1.80;90.50;;;;;;5073543;28;20024;-51
2021/11/29 06:41:27;;;;;;;3.67;2.20;;;1.70;90.90;;;;;;5073642;28;20020;-48
2021/11/29 06:43:54;;;;;;;4.55;1.90;;;1.80;90.90;;;;;;5073865;28;20060;-49
2021/11/29 06:46:20;;;;;;;3.15;2.42;;;1.80;90.40;;;;;;5073936;28;20029;-48
2021/11/29 06:48:46;;;;;;;4.82;2.58;;;1.70;90.60;;;;;;5073381;28;20031;-48
2021/11/29 06:51:12;;;;;;;4.38;2.35;;;1.50;91.10;;;;;;5073514;28;20059;-52
2021/11/29 06:53:40;;;;;;;2.90;1.75;;;1.60;91.30;;;;;;5073321;28;20112;-48
2021/11/29 06:56:06;;;;;;;8.75;2.72;;;1.50;91.70;;;;;;5073611;28;20469;-50
2021/11/29 06:58:32;;;;;;;3.40;2.75;;;1.50;91.70;;;;;;5073066;28;20032;-50
2021/11/29 07:00:58;;;;;;;3.05;2.35;;;1.50;91.80;;;;;;5073311;28;20132;-48
2021/11/29 07:03:24;;;;;;;4.65;2.88;;;1.60;91.90;;;;;;5073253;28;20020;-52
2021/11/29 07:05:51;;;;;;;4.10;2.70;;;1.60;91.70;;;;;;5073088;28;20024;-49
2021/11/29 07:08:20;;;;;;;4.90;2.55;;;1.60;91.80;;;;;;5055139;28;20029;-48
2021/11/29 07:10:47;;;;;;;7.63;3.25;;;1.70;91.80;;;;;;5072748;28;20028;-50
2021/11/29 07:13:15;;;;;;;5.05;2.75;;;1.70;91.60;;;;;;5073272;28;20021;-48
2021/11/29 07:15:42;;;;;;;6.03;3.13;;;1.70;91.60;;;;;;5055080;28;20349;-48
2021/11/29 07:18:08;;;;;;;6.55;3.25;;;1.80;91.70;;;;;;5072917;28;20413;-50
2021/11/29 07:20:34;;;;;;;10.38;3.33;;;1.80;91.40;;;;;;5072979;28;20106;-49
2021/11/29 07:23:00;;;;;;;3.67;3.10;;;1.80;91.50;;;;;;5072477;28;20028;-49
2021/11/29 07:25:26;;;;;;;7.97;2.95;;;1.70;91.80;;;;;;5072635;28;20090;-55
2021/11/29 07:27:52;;;;;;;15.43;3.85;;;1.80;91.70;;;;;;5073331;28;20025;-49
2021/11/29 07:30:20;;;;;;;8.85;3.72;;;1.80;91.40;;;;;;5073396;28;20032;-50
2021/11/29 07:32:46;;;;;;;8.65;4.32;;;1.70;91.80;;;;;;5073181;28;20074;-49
2021/11/29 07:35:13;;;;;;;9.38;3.78;;;1.70;92.00;;;;;;5072560;28;20070;-49
2021/11/29 07:37:40;;;;;;;7.40;3.53;;;1.70;91.90;;;;;;5072432;28;20211;-49
2021/11/29 07:40:07;;;;;;;10.75;3.70;;;1.70;91.80;;;;;;5054715;28;20025;-48
2021/11/29 07:42:32;;;;;;;6.70;3.33;;;1.80;91.80;;;;;;5073240;28;20020;-48
2021/11/29 07:44:58;;;;;;;11.27;3.38;;;1.80;91.40;;;;;;5073786;28;20020;-52
2021/11/29 07:47:25;;;;;;;11.38;3.95;;;1.80;91.80;;;;;;5072742;28;20024;-52
2021/11/29 07:49:52;;;;;;;9.52;4.78;;;1.80;91.60;;;;;;5055391;28;20050;-48
2021/11/29 07:52:21;;;;;;;11.68;4.20;;;1.90;91.90;;;;;;5073213;28;20047;-49
2021/11/29 07:54:46;;;;;;;6.93;3.53;;;2.00;91.60;;;;;;5073604;28;20028;-49
2021/11/29 07:57:16;;;;;;;6.78;4.43;;;2.10;91.10;;;;;;5073756;28;20036;-50
2021/11/29 07:59:42;;;;;;;8.20;3.47;;;2.00;91.20;;;;;;5074220;28;20052;-49
2021/11/29 14:03:07;;;;;;;8.68;6.13;;;4.30;84.80;;;;;;5090442;27;20207;-51
2021/11/29 14:05:45;;;;;;;9.77;4.95;;;4.60;84.90;;;;;;5091492;28;20106;-49
2021/11/29 14:08:15;;;;;;;6.50;5.22;;;4.90;83.80;;;;;;5073017;28;20024;-49
2021/11/29 14:10:57;;;;;;;11.07;6.68;;;5.10;83.00;;;;;;5090520;28;20115;-50
2021/11/29 14:13:58;;;;;;;13.50;5.35;;;5.10;82.80;;;;;;5090607;28;20357;-48
2021/11/29 14:16:28;;;;;;;20.48;11.30;;;4.90;83.60;;;;;;5090336;28;20020;-50
2021/11/29 14:19:00;;;;;;;10.18;6.07;;;4.90;83.60;;;;;;5089959;28;20086;-48
2021/11/29 14:21:31;;;;;;;6.45;4.00;;;5.10;82.30;;;;;;5091035;28;20048;-49
2021/11/29 14:23:59;;;;;;;7.85;5.75;;;5.10;81.90;;;;;;5090035;28;20050;-48
2021/11/29 14:26:30;;;;;;;7.85;4.88;;;5.10;82.40;;;;;;5090282;28;20472;-51
2021/11/29 14:28:57;;;;;;;6.95;4.68;;;5.20;82.30;;;;;;5089563;28;20020;-52
2021/11/29 14:31:25;;;;;;;10.52;4.95;;;5.40;81.80;;;;;;5090184;28;20040;-51
2021/11/29 14:33:51;;;;;;;7.13;4.40;;;5.40;80.00;;;;;;5089995;28;20042;-49
2021/11/29 14:36:34;;;;;;;11.23;5.05;;;5.30;80.20;;;;;;5090215;28;20032;-50
2021/11/29 14:39:01;;;;;;;11.75;6.30;;;5.40;80.40;;;;;;5091299;28;20036;-49
2021/11/29 14:41:28;;;;;;;10.70;4.18;;;5.30;79.70;;;;;;5090120;28;20057;-51
2021/11/29 14:43:57;;;;;;;5.10;3.65;;;5.30;79.50;;;;;;5092147;28;20357;-54
2021/11/29 14:46:32;;;;;;;6.07;4.35;;;5.20;80.10;;;;;;5094706;28;20017;-52
2021/11/29 14:49:21;;;;;;;6.43;4.22;;;5.20;80.40;;;;;;5092997;28;20025;-53
2021/11/29 14:51:49;;;;;;;5.63;3.28;;;5.00;80.50;;;;;;5093194;28;20028;-49
2021/11/29 14:54:16;;;;;;;8.60;4.75;;;5.10;81.00;;;;;;5095544;28;20070;-49
2021/11/29 14:56:45;;;;;;;6.50;4.53;;;5.00;81.30;;;;;;5095352;28;20035;-50
2021/11/29 14:59:21;;;;;;;10.30;4.32;;;4.90;82.20;;;;;;5090719;28;20020;-50
2021/11/29 15:01:53;;;;;;;9.10;5.43;;;4.80;82.60;;;;;;5049763;28;20077;-50
2021/11/29 15:04:26;;;;;;;7.68;4.05;;;4.90;82.30;;;;;;5007492;28;20030;-49
2021/11/29 15:07:02;;;;;;;13.18;6.03;;;4.90;82.40;;;;;;5006400;28;20071;-49
2021/11/29 15:09:29;;;;;;;11.88;5.82;;;4.90;82.60;;;;;;5006165;28;20022;-49
2021/11/29 15:11:57;;;;;;;14.43;6.78;;;4.90;82.50;;;;;;5005631;28;20112;-49
2021/11/29 15:14:24;;;;;;;12.18;6.57;;;4.90;82.80;;;;;;4993161;28;20034;-49
2021/11/29 15:16:52;;;;;;;8.73;6.10;;;4.80;82.80;;;;;;4993138;28;20027;-51
2021/11/29 15:19:28;;;;;;;9.32;5.25;;;4.80;82.60;;;;;;4992783;28;20106;-52
2021/11/29 15:22:07;;;;;;;11.15;6.47;;;4.90;81.90;;;;;;4992697;28;20034;-52
2021/11/29 15:24:52;;;;;;;8.10;4.40;;;4.90;81.70;;;;;;4992286;28;20026;-48
2021/11/29 15:27:29;;;;;;;9.30;5.40;;;4.80;81.90;;;;;;4992501;28;20023;-52
2021/11/29 15:30:00;;;;;;;7.88;5.57;;;4.80;82.70;;;;;;4992439;28;20045;-49
2021/11/29 15:32:29;;;;;;;6.15;4.15;;;4.80;82.20;;;;;;4993394;28;20030;-50
2021/11/29 15:35:12;;;;;;;13.65;5.22;;;4.80;81.60;;;;;;4995592;28;20038;-53
2021/11/29 15:37:59;;;;;;;8.05;4.35;;;4.70;82.10;;;;;;4993184;28;20430;-52
2021/11/29 15:40:32;;;;;;;8.57;5.63;;;4.80;82.40;;;;;;4993138;28;20026;-49
2021/11/29 15:43:01;;;;;;;8.50;4.78;;;4.80;82.50;;;;;;4992772;28;20045;-49
2021/11/29 15:45:32;;;;;;;9.88;5.43;;;4.70;82.50;;;;;;4992220;28;20030;-49
2021/11/29 15:47:58;;;;;;;6.20;4.18;;;4.70;82.80;;;;;;4992489;28;20113;-50
2021/11/29 15:50:24;;;;;;;7.60;5.22;;;4.70;82.40;;;;;;4992457;28;20029;-49
2021/11/29 15:52:50;;;;;;;6.97;5.28;;;4.80;82.70;;;;;;4992458;28;20550;-57
2021/11/29 15:55:15;;;;;;;8.70;4.55;;;4.70;83.00;;;;;;4991940;28;20022;-52
2021/11/29 15:57:41;;;;;;;8.30;5.20;;;4.60;83.20;;;;;;4992150;28;20034;-50
2021/11/29 16:00:08;;;;;;;13.30;7.68;;;4.50;83.90;;;;;;5059148;28;20501;-50
2021/11/29 16:02:34;;;;;;;7.22;4.65;;;4.50;84.30;;;;;;4991876;28;20078;-53
2021/11/29 16:04:59;;;;;;;9.20;4.25;;;4.60;84.10;;;;;;4991870;28;20054;-50
2021/11/29 16:07:25;;;;;;;10.50;6.40;;;4.60;84.00;;;;;;4991527;28;20522;-51
2021/11/29 16:09:51;;;;;;;9.90;5.55;;;4.50;84.40;;;;;;4992137;28;20386;-51
2021/11/29 16:12:17;;;;;;;6.60;4.80;;;4.50;84.00;;;;;;4991764;28;20050;-51
2021/11/29 16:14:44;;;;;;;8.95;6.13;;;4.50;84.20;;;;;;4991812;28;20531;-52
2021/11/29 16:17:11;;;;;;;9.68;5.85;;;4.40;84.30;;;;;;4991870;28;20394;-48
2021/11/29 16:19:37;;;;;;;10.32;6.45;;;4.40;84.30;;;;;;4991829;28;20030;-50
2021/11/29 16:22:03;;;;;;;12.10;5.43;;;4.50;84.10;;;;;;5059064;28;20478;-50
2021/11/29 16:24:29;;;;;;;8.63;5.38;;;4.40;84.10;;;;;;4990884;28;20106;-52
2021/11/29 16:27:03;;;;;;;10.30;6.20;;;4.50;84.30;;;;;;4991818;28;20557;-51
2021/11/29 16:29:29;;;;;;;15.20;7.32;;;4.50;84.70;;;;;;4992014;28;20409;-51
2021/11/29 16:31:55;;;;;;;10.07;5.50;;;4.60;84.60;;;;;;4991457;28;20030;-53
2021/11/29 16:34:21;;;;;;;9.07;5.03;;;4.50;83.90;;;;;;4992027;28;20046;-52
2021/11/29 16:36:47;;;;;;;9.35;6.05;;;4.50;83.70;;;;;;4991790;28;20367;-50
2021/11/29 16:39:12;;;;;;;9.25;5.30;;;4.50;84.20;;;;;;4992250;28;20474;-51
2021/11/29 16:41:38;;;;;;;13.43;5.35;;;4.50;84.30;;;;;;4991466;28;20023;-55
2021/11/29 16:44:04;;;;;;;8.65;5.63;;;4.40;84.50;;;;;;4992182;28;20026;-50
2021/11/29 16:46:30;;;;;;;10.98;5.43;;;4.50;84.50;;;;;;4992296;28;20490;-50
2021/11/29 16:49:00;;;;;;;7.10;4.65;;;4.40;84.40;;;;;;4991914;28;20018;-53
2021/11/29 16:51:27;;;;;;;11.48;5.60;;;4.50;83.90;;;;;;4992202;28;20030;-50
2021/11/29 16:53:53;;;;;;;8.40;5.90;;;4.50;84.20;;;;;;4993205;28;20047;-50
2021/11/29 16:56:19;;;;;;;14.65;5.90;;;4.50;84.10;;;;;;4991546;28;20469;-50
2021/11/29 16:58:45;;;;;;;8.48;5.68;;;4.50;84.30;;;;;;4990911;28;20058;-51
2021/11/29 17:01:12;;;;;;;8.18;5.63;;;4.50;84.20;;;;;;4990970;28;20078;-51
2021/11/29 17:03:37;;;;;;;8.70;5.05;;;4.60;84.20;;;;;;4991457;28;20478;-52
2021/11/29 17:06:04;;;;;;;11.95;5.88;;;4.50;84.20;;;;;;5058475;28;20022;-50
2021/11/29 17:08:30;;;;;;;8.55;5.18;;;4.50;84.50;;;;;;4991585;28;20501;-48
2021/11/29 17:10:58;;;;;;;11.25;5.72;;;4.60;84.10;;;;;;4991796;28;20050;-50
2021/11/29 17:13:24;;;;;;;13.23;5.38;;;4.60;83.90;;;;;;4991563;28;20014;-50
2021/11/29 17:15:50;;;;;;;11.02;5.68;;;4.60;83.70;;;;;;4991629;28;20071;-51
2021/11/29 17:18:16;;;;;;;8.35;5.60;;;4.60;83.80;;;;;;4991457;28;20448;-53
2021/11/29 17:20:42;;;;;;;13.48;5.35;;;4.60;84.10;;;;;;5057878;28;20033;-48
2021/11/29 17:23:08;;;;;;;10.38;6.68;;;4.60;84.10;;;;;;4990658;28;20030;-49
2021/11/29 17:25:35;;;;;;;10.68;6.10;;;4.60;84.30;;;;;;4991096;28;20478;-50
2021/11/29 17:28:07;;;;;;;12.20;6.85;;;4.50;84.60;;;;;;4990496;28;20080;-52
2021/11/29 17:30:34;;;;;;;16.73;6.35;;;4.50;84.90;;;;;;4990785;28;20424;-48
2021/11/29 17:33:01;;;;;;;10.57;7.00;;;4.50;85.00;;;;;;4990872;28;20023;-49
2021/11/29 17:35:29;;;;;;;11.25;5.53;;;4.50;85.30;;;;;;4990754;28;20034;-50
2021/11/29 17:37:56;;;;;;;12.35;6.32;;;4.50;85.40;;;;;;5057474;28;20198;-48
2021/11/29 17:40:24;;;;;;;10.63;5.57;;;4.50;85.50;;;;;;4990413;28;20033;-50
2021/11/29 17:42:51;;;;;;;9.82;5.85;;;4.50;85.40;;;;;;4990549;28;20072;-50
2021/11/29 17:45:21;;;;;;;12.20;5.28;;;4.50;85.50;;;;;;5057893;28;20030;-49
2021/11/29 17:47:47;;;;;;;8.77;5.97;;;4.60;85.50;;;;;;4990848;28;20084;-51
2021/11/29 17:50:14;;;;;;;11.60;5.60;;;4.60;84.90;;;;;;5058249;28;20482;-51
2021/11/29 17:52:42;;;;;;;9.30;5.57;;;4.60;84.80;;;;;;4991021;28;20057;-52
2021/11/29 17:55:08;;;;;;;12.52;6.95;;;4.70;85.00;;;;;;4990125;28;20023;-51
2021/11/29 17:57:34;;;;;;;16.00;6.80;;;4.70;85.10;;;;;;4990191;28;20354;-49
2021/11/29 18:00:00;;;;;;;11.75;6.38;;;4.50;85.20;;;;;;4990258;28;20026;-51
2021/11/29 18:02:25;;;;;;;11.52;5.65;;;4.50;85.40;;;;;;4989966;28;20061;-50
2021/11/29 18:04:51;;;;;;;10.95;6.18;;;4.60;85.30;;;;;;4990368;28;20328;-50
2021/11/29 18:07:31;;;;;;;15.23;7.22;;;4.50;85.70;;;;;;4990558;28;20033;-51
2021/11/29 18:12:43;;;;;;;12.73;6.22;;;4.60;85.40;;;;;;4990775;28;20172;-49
2021/11/29 18:15:17;;;;;;;11.90;6.13;;;4.70;85.30;;;;;;4990377;28;20110;-51
2021/11/29 18:17:45;;;;;;;11.02;6.38;;;4.60;85.60;;;;;;5057817;28;20038;-50
2021/11/29 18:20:14;;;;;;;11.25;6.57;;;4.60;85.90;;;;;;5057443;28;20018;-51
2021/11/29 18:22:42;;;;;;;17.05;6.75;;;4.60;85.80;;;;;;4990378;28;20054;-49
2021/11/29 18:25:10;;;;;;;16.10;7.00;;;4.50;86.20;;;;;;4990192;28;20031;-51
2021/11/29 18:27:38;;;;;;;15.15;8.55;;;4.50;86.50;;;;;;4989927;28;20026;-54
2021/11/29 18:30:09;;;;;;;11.02;6.97;;;4.50;86.50;;;;;;4990037;28;20046;-48
2021/11/29 18:32:35;;;;;;;12.07;7.05;;;4.50;86.80;;;;;;4989664;28;20033;-49
2021/11/29 18:35:03;;;;;;;25.70;9.20;;;4.60;86.60;;;;;;4990094;28;20034;-51
2021/11/29 18:37:28;;;;;;;14.18;6.82;;;4.50;86.80;;;;;;4989876;28;20177;-50
2021/11/29 18:39:54;;;;;;;10.63;6.88;;;4.50;87.10;;;;;;4990340;28;20479;-50
2021/11/29 18:42:20;;;;;;;13.07;7.93;;;4.40;87.30;;;;;;4990203;28;20062;-49
2021/11/29 18:44:47;;;;;;;13.77;7.38;;;4.60;87.30;;;;;;4990324;28;20030;-49
2021/11/29 18:47:12;;;;;;;17.83;8.00;;;4.50;87.50;;;;;;4990116;28;20129;-49
2021/11/29 18:49:38;;;;;;;17.17;8.95;;;4.50;87.60;;;;;;5060233;28;20061;-51
2021/11/29 18:52:04;;;;;;;19.45;8.05;;;4.60;87.70;;;;;;5061233;28;20034;-53
2021/11/29 18:54:30;;;;;;;17.20;6.15;;;4.60;87.80;;;;;;4993497;28;20049;-50
2021/11/29 18:56:56;;;;;;;19.35;7.20;;;4.80;87.70;;;;;;4993299;28;20030;-51
2021/11/29 18:59:22;;;;;;;15.32;7.30;;;4.70;87.70;;;;;;4993398;28;20040;-50
2021/11/29 19:01:48;;;;;;;11.02;7.10;;;4.60;88.20;;;;;;4992638;28;20077;-51
2021/11/29 19:04:13;;;;;;;14.10;7.13;;;4.60;88.60;;;;;;4993433;28;20105;-51
2021/11/29 19:06:39;;;;;;;13.60;6.82;;;4.50;89.00;;;;;;4993450;28;20037;-51
2021/11/29 19:09:05;;;;;;;12.75;6.95;;;4.40;89.10;;;;;;4993204;28;20026;-52
2021/11/29 19:11:31;;;;;;;14.13;7.40;;;4.40;89.40;;;;;;5060651;28;20486;-51
2021/11/29 19:13:57;;;;;;;11.52;6.90;;;4.40;89.60;;;;;;5060389;28;20042;-49
2021/11/29 19:16:23;;;;;;;13.13;6.47;;;4.30;89.80;;;;;;4993045;28;20023;-50
2021/11/29 19:18:49;;;;;;;14.30;7.55;;;4.40;90.00;;;;;;4992867;28;20038;-52
2021/11/29 19:21:14;;;;;;;15.05;6.90;;;4.40;89.80;;;;;;4992612;28;20029;-52
2021/11/29 19:23:42;;;;;;;11.98;7.25;;;4.30;89.90;;;;;;4992838;28;20463;-53
2021/11/29 19:26:08;;;;;;;12.85;6.82;;;4.30;90.10;;;;;;4992952;28;20529;-50
2021/11/29 19:28:34;;;;;;;13.95;7.95;;;4.30;90.30;;;;;;4992967;28;20026;-49
2021/11/29 19:31:00;;;;;;;13.60;8.15;;;4.30;90.40;;;;;;4993666;28;20026;-51
2021/11/29 19:33:26;;;;;;;15.55;8.45;;;4.30;90.40;;;;;;5060318;28;20394;-50
2021/11/29 19:35:52;;;;;;;14.43;7.13;;;4.30;90.40;;;;;;4993278;28;20019;-49
2021/11/29 19:38:18;;;;;;;13.68;8.23;;;4.30;90.30;;;;;;4993326;28;20027;-53
2021/11/29 19:41:45;;;;;;;13.32;6.95;;;4.30;90.50;;;;;;4992765;28;20148;-50
2021/11/29 19:43:40;;;;;;;11.25;7.43;;;4.40;90.40;;;;;;5001006;28;20106;-52
2021/11/29 19:46:08;;;;;;;12.30;7.55;;;4.40;90.40;;;;;;4992530;28;20428;-52
2021/11/29 19:48:33;;;;;;;11.73;7.47;;;4.40;90.60;;;;;;4993006;28;20046;-48
2021/11/29 19:50:59;;;;;;;20.27;9.23;;;4.40;90.40;;;;;;4992299;28;20022;-50
2021/11/29 19:53:25;;;;;;;11.88;7.78;;;4.30;90.60;;;;;;5059481;28;20027;-52
2021/11/29 19:55:51;;;;;;;12.63;8.27;;;4.40;90.70;;;;;;4992241;28;20030;-52
2021/11/29 19:58:17;;;;;;;11.75;6.88;;;4.50;90.70;;;;;;4992249;28;20105;-50
2021/11/29 20:00:43;;;;;;;20.85;9.48;;;4.50;90.60;;;;;;5059023;28;20498;-53
2021/11/29 20:03:09;;;;;;;14.95;7.72;;;4.50;90.70;;;;;;4992021;28;20374;-48
2021/11/29 20:05:36;;;;;;;14.73;6.97;;;4.50;90.60;;;;;;4992141;28;20023;-53
2021/11/29 20:08:02;;;;;;;17.80;7.65;;;4.50;90.80;;;;;;4992864;28;20442;-50
2021/11/29 20:10:27;;;;;;;17.83;8.50;;;4.60;90.50;;;;;;4992005;28;20019;-51
2021/11/29 20:12:55;;;;;;;16.00;10.27;;;4.60;90.60;;;;;;4991836;28;20079;-50
2021/11/29 20:15:23;;;;;;;17.38;10.38;;;4.60;90.60;;;;;;4992095;28;20030;-51
2021/11/29 20:17:48;;;;;;;18.83;10.95;;;4.60;90.40;;;;;;4991733;28;20113;-51
2021/11/29 20:20:16;;;;;;;17.70;9.48;;;4.50;90.60;;;;;;4992101;28;20061;-51
2021/11/29 20:22:43;;;;;;;18.73;11.23;;;4.50;90.80;;;;;;4992467;28;20031;-52
2021/11/29 20:25:11;;;;;;;19.15;10.98;;;4.40;91.00;;;;;;4991988;28;20026;-52
2021/11/29 20:27:37;;;;;;;18.05;9.93;;;4.40;91.20;;;;;;4991935;28;20018;-49
2021/11/29 20:30:06;;;;;;;19.65;11.85;;;4.40;91.20;;;;;;4992392;28;20030;-51
2021/11/29 20:32:32;;;;;;;20.90;11.80;;;4.40;91.40;;;;;;4992106;28;20034;-51
2021/11/29 20:34:59;;;;;;;21.00;12.00;;;4.40;91.20;;;;;;4992036;28;20466;-52
2021/11/29 20:37:27;;;;;;;16.45;10.32;;;4.40;91.10;;;;;;4991492;28;20562;-49
2021/11/29 20:39:53;;;;;;;16.98;11.25;;;4.40;91.20;;;;;;5058798;28;20064;-47
2021/11/29 20:42:19;;;;;;;19.13;10.32;;;4.30;91.30;;;;;;4991193;28;20037;-50
2021/11/29 20:44:46;;;;;;;14.88;11.27;;;4.30;91.60;;;;;;4991816;28;20029;-52
2021/11/29 20:47:11;;;;;;;14.50;10.60;;;4.30;91.40;;;;;;4992396;28;20033;-49
2021/11/29 20:49:37;;;;;;;13.23;9.50;;;4.30;91.50;;;;;;4991459;28;20018;-51
2021/11/29 20:52:04;;;;;;;22.58;11.70;;;4.30;91.50;;;;;;4992266;28;20101;-50
2021/11/29 20:54:30;;;;;;;18.40;10.43;;;4.20;91.60;;;;;;4992092;28;20034;-51
2021/11/29 20:56:57;;;;;;;13.98;9.10;;;4.20;91.70;;;;;;4991681;28;20382;-52
2021/11/29 20:59:23;;;;;;;16.88;9.25;;;4.20;91.80;;;;;;4992654;28;20050;-50
2021/11/29 21:01:48;;;;;;;15.00;10.65;;;4.10;91.70;;;;;;4991307;28;20078;-53
2021/11/29 21:04:14;;;;;;;16.90;10.30;;;4.10;91.70;;;;;;4991692;28;20079;-49
2021/11/29 21:06:40;;;;;;;16.25;8.55;;;4.20;91.70;;;;;;4991105;28;20060;-52
2021/11/29 21:09:07;;;;;;;12.05;8.15;;;4.20;91.60;;;;;;5058785;28;20041;-50
2021/11/29 21:11:36;;;;;;;11.98;8.95;;;4.30;91.50;;;;;;4990860;28;20595;-51
2021/11/29 21:14:04;;;;;;;13.27;8.52;;;4.20;91.50;;;;;;4991429;28;20045;-48
2021/11/29 21:16:32;;;;;;;21.67;8.95;;;4.20;91.70;;;;;;4991835;28;20066;-52
2021/11/29 21:18:58;;;;;;;19.15;7.78;;;4.30;91.70;;;;;;4991046;28;20109;-49
2021/11/29 21:21:24;;;;;;;11.63;7.68;;;4.20;91.70;;;;;;4991278;28;20035;-48
2021/11/29 21:23:49;;;;;;;12.38;7.70;;;4.30;91.60;;;;;;4991158;28;20151;-49
2021/11/29 21:26:16;;;;;;;12.38;7.20;;;4.30;91.70;;;;;;4990951;28;20119;-51
2021/11/29 21:28:43;;;;;;;21.67;9.80;;;4.30;91.40;;;;;;4990930;28;20022;-49
2021/11/29 21:31:09;;;;;;;18.45;8.90;;;4.30;91.40;;;;;;4990984;28;20057;-50
2021/11/29 21:33:36;;;;;;;15.00;8.73;;;4.30;91.50;;;;;;4991374;28;20045;-49
2021/11/29 21:36:01;;;;;;;22.35;8.07;;;4.40;91.40;;;;;;4990866;28;20045;-51
2021/11/29 21:38:28;;;;;;;19.40;8.32;;;4.40;91.50;;;;;;4991024;28;20023;-49
2021/11/29 21:40:55;;;;;;;12.15;7.57;;;4.40;91.20;;;;;;4990578;28;20124;-49
2021/11/29 21:43:21;;;;;;;11.35;6.95;;;4.40;91.30;;;;;;4991563;28;20347;-49
2021/11/29 21:45:47;;;;;;;10.50;6.25;;;4.40;91.70;;;;;;5057758;28;20045;-51
2021/11/29 21:48:13;;;;;;;9.90;6.60;;;4.40;91.70;;;;;;4990822;28;20126;-51
2021/11/29 21:50:38;;;;;;;8.60;5.93;;;4.30;92.20;;;;;;4990834;28;20022;-50
2021/11/29 21:53:05;;;;;;;9.73;6.30;;;4.40;92.00;;;;;;4991114;28;20037;-52
2021/11/29 21:55:33;;;;;;;12.50;5.82;;;4.40;91.90;;;;;;4990982;28;20027;-50
2021/11/29 21:57:59;;;;;;;12.63;5.82;;;4.40;91.90;;;;;;4990770;28;20023;-50
2021/11/29 22:00:25;;;;;;;14.90;5.38;;;4.40;92.00;;;;;;4990701;28;20134;-48
2021/11/29 22:02:51;;;;;;;7.40;4.95;;;4.40;92.10;;;;;;4990357;28;20129;-51
2021/11/29 22:05:17;;;;;;;7.15;4.05;;;4.40;92.00;;;;;;4990833;28;20408;-48
2021/11/29 22:07:43;;;;;;;8.98;3.65;;;4.40;92.00;;;;;;4990942;28;20023;-48
2021/11/29 22:10:11;;;;;;;9.73;4.00;;;4.50;91.80;;;;;;4990546;28;20127;-50
2021/11/29 22:12:37;;;;;;;5.15;2.83;;;4.50;91.50;;;;;;4991199;28;20053;-50
2021/11/29 22:15:04;;;;;;;19.80;4.28;;;4.50;91.50;;;;;;4990516;28;20132;-51
2021/11/29 22:17:30;;;;;;;5.30;1.80;;;4.40;91.30;;;;;;4990560;28;20027;-52
2021/11/29 22:19:55;;;;;;;6.30;2.97;;;4.50;91.10;;;;;;4990818;28;20125;-53
2021/11/29 22:22:21;;;;;;;4.15;2.58;;;4.50;91.00;;;;;;5057647;28;20038;-51
2021/11/29 22:24:47;;;;;;;3.95;2.47;;;4.50;90.70;;;;;;4994079;28;20026;-48
2021/11/29 22:27:12;;;;;;;9.30;2.78;;;4.50;90.40;;;;;;4994499;28;20516;-52
2021/11/29 22:29:40;;;;;;;7.28;2.70;;;4.60;90.10;;;;;;5061325;28;20029;-53
2021/11/29 22:32:07;;;;;;;6.57;2.42;;;4.60;90.10;;;;;;4994456;28;20022;-51
2021/11/29 22:34:32;;;;;;;5.35;2.90;;;4.60;89.70;;;;;;4994580;28;20034;-48
2021/11/29 22:36:58;;;;;;;9.70;3.25;;;4.60;89.60;;;;;;4994471;28;20038;-49
2021/11/29 22:39:26;;;;;;;5.50;2.58;;;4.60;89.80;;;;;;5061376;28;20508;-51
2021/11/29 22:41:51;;;;;;;6.10;3.38;;;4.50;89.70;;;;;;4993768;28;20033;-51
2021/11/29 22:44:17;;;;;;;7.18;2.95;;;4.50;89.40;;;;;;4993869;28;20031;-52
2021/11/29 22:46:43;;;;;;;9.75;3.35;;;4.50;89.00;;;;;;4993796;28;20057;-50
2021/11/29 22:49:08;;;;;;;3.65;2.65;;;4.60;88.30;;;;;;4993851;28;20018;-49
2021/11/29 22:51:34;;;;;;;3.35;2.20;;;4.50;88.20;;;;;;4994074;28;20520;-51
2021/11/29 22:54:00;;;;;;;10.48;3.90;;;4.50;87.90;;;;;;4994477;28;20053;-47
2021/11/29 22:56:26;;;;;;;14.25;3.70;;;4.50;87.90;;;;;;4993731;28;20084;-48